sensor_id;sensor_type;location;lat;lon;timestamp;pressure;altitude;pressure_sealevel;temperature;humidity
9746;BME280;4912;50.836;12.958;2023-04-20T00:02:15;97976.72;;;8.84;79.99
9746;BME280;4912;50.836;12.958;2023-04-20T00:04:48;97974.88;;;8.81;80.12
9746;BME280;4912;50.836;12.958;2023-04-20T00:07:19;97978.53;;;8.78;80.45
9746;BME280;4912;50.836;12.958;2023-04-20T00:09:50;97981.44;;;8.74;80.69
9746;BME280;4912;50.836;12.958;2023-04-20T00:12:20;97978.06;;;8.70;81.24
9746;BME280;4912;50.836;12.958;2023-04-20T00:14:51;97970.22;;;8.69;81.46
9746;BME280;4912;50.836;12.958;2023-04-20T00:17:21;97968.69;;;8.68;81.31
9746;BME280;4912;50.836;12.958;2023-04-20T00:19:54;97971.13;;;8.66;81.99
9746;BME280;4912;50.836;12.958;2023-04-20T00:22:25;97971.88;;;8.66;82.07
9746;BME280;4912;50.836;12.958;2023-04-20T00:24:56;97969.59;;;8.65;82.25
9746;BME280;4912;50.836;12.958;2023-04-20T00:27:26;97964.06;;;8.65;82.46
9746;BME280;4912;50.836;12.958;2023-04-20T00:29:57;97958.56;;;8.65;82.75
9746;BME280;4912;50.836;12.958;2023-04-20T00:32:29;97963.16;;;8.68;82.91
9746;BME280;4912;50.836;12.958;2023-04-20T00:35:02;97967.13;;;8.67;82.92
9746;BME280;4912;50.836;12.958;2023-04-20T00:37:32;97966.25;;;8.70;82.79
9746;BME280;4912;50.836;12.958;2023-04-20T00:40:03;97964.25;;;8.70;82.92
9746;BME280;4912;50.836;12.958;2023-04-20T00:42:35;97963.81;;;8.72;83.01
9746;BME280;4912;50.836;12.958;2023-04-20T00:45:07;97968.09;;;8.73;83.04
9746;BME280;4912;50.836;12.958;2023-04-20T00:47:38;97963.75;;;8.62;82.75
9746;BME280;4912;50.836;12.958;2023-04-20T00:50:11;97964.06;;;8.65;82.57
9746;BME280;4912;50.836;12.958;2023-04-20T00:52:41;97960.38;;;8.58;82.43
9746;BME280;4912;50.836;12.958;2023-04-20T00:55:11;97957.28;;;8.56;82.99
9746;BME280;4912;50.836;12.958;2023-04-20T00:57:43;97954.53;;;8.56;81.76
9746;BME280;4912;50.836;12.958;2023-04-20T01:00:14;97954.47;;;8.47;81.89
9746;BME280;4912;50.836;12.958;2023-04-20T01:02:47;97960.88;;;8.44;80.96
9746;BME280;4912;50.836;12.958;2023-04-20T01:05:20;97950.44;;;8.39;80.90
9746;BME280;4912;50.836;12.958;2023-04-20T01:07:51;97950.44;;;8.39;80.92
9746;BME280;4912;50.836;12.958;2023-04-20T01:10:21;97952.41;;;8.39;81.15
9746;BME280;4912;50.836;12.958;2023-04-20T01:12:51;97950.56;;;8.36;80.81
9746;BME280;4912;50.836;12.958;2023-04-20T01:15:22;97948.59;;;8.36;80.66
9746;BME280;4912;50.836;12.958;2023-04-20T01:17:55;97945.50;;;8.34;80.86
9746;BME280;4912;50.836;12.958;2023-04-20T01:20:29;97950.69;;;8.32;81.11
9746;BME280;4912;50.836;12.958;2023-04-20T01:23:03;97949.81;;;8.35;80.56
9746;BME280;4912;50.836;12.958;2023-04-20T01:25:33;97943.28;;;8.29;80.76
9746;BME280;4912;50.836;12.958;2023-04-20T01:28:03;97946.63;;;8.24;80.87
9746;BME280;4912;50.836;12.958;2023-04-20T01:30:38;97944.75;;;8.21;81.56
9746;BME280;4912;50.836;12.958;2023-04-20T01:33:08;97942.91;;;8.18;81.14
9746;BME280;4912;50.836;12.958;2023-04-20T01:35:40;97940.16;;;8.18;81.27
9746;BME280;4912;50.836;12.958;2023-04-20T01:38:19;97940.47;;;8.20;81.14
9746;BME280;4912;50.836;12.958;2023-04-20T01:40:51;97946.63;;;8.24;81.09
9746;BME280;4912;50.836;12.958;2023-04-20T01:43:22;97940.72;;;8.13;80.79
9746;BME280;4912;50.836;12.958;2023-04-20T01:45:52;97939.50;;;8.14;80.43
9746;BME280;4912;50.836;12.958;2023-04-20T01:48:23;97933.03;;;8.08;79.33
9746;BME280;4912;50.836;12.958;2023-04-20T01:50:53;97940.41;;;8.11;79.43
9746;BME280;4912;50.836;12.958;2023-04-20T01:53:26;97937.66;;;8.11;79.81
9746;BME280;4912;50.836;12.958;2023-04-20T01:55:57;97936.75;;;8.14;80.01
9746;BME280;4912;50.836;12.958;2023-04-20T01:58:27;97934.56;;;8.09;79.78
9746;BME280;4912;50.836;12.958;2023-04-20T02:00:59;97934.56;;;8.09;80.12
9746;BME280;4912;50.836;12.958;2023-04-20T02:03:31;97926.75;;;8.07;80.03
9746;BME280;4912;50.836;12.958;2023-04-20T02:06:01;97933.03;;;8.08;80.18
9746;BME280;4912;50.836;12.958;2023-04-20T02:08:35;97930.72;;;8.06;79.63
9746;BME280;4912;50.836;12.958;2023-04-20T02:11:06;97929.88;;;7.97;79.67
9746;BME280;4912;50.836;12.958;2023-04-20T02:13:37;97936.94;;;7.98;80.09
9746;BME280;4912;50.836;12.958;2023-04-20T02:16:07;97936.06;;;8.01;80.26
9746;BME280;4912;50.836;12.958;2023-04-20T02:18:38;97928.66;;;7.98;79.99
9746;BME280;4912;50.836;12.958;2023-04-20T02:21:08;97932.97;;;7.99;80.18
9746;BME280;4912;50.836;12.958;2023-04-20T02:23:41;97926.94;;;7.91;80.55
9746;BME280;4912;50.836;12.958;2023-04-20T02:26:12;97929.38;;;7.89;80.60
9746;BME280;4912;50.836;12.958;2023-04-20T02:28:42;97930.97;;;7.77;80.01
9746;BME280;4912;50.836;12.958;2023-04-20T02:31:13;97933.38;;;7.75;80.17
9746;BME280;4912;50.836;12.958;2023-04-20T02:33:43;97927.34;;;7.68;80.26
9746;BME280;4912;50.836;12.958;2023-04-20T02:36:15;97917.22;;;7.65;80.73
9746;BME280;4912;50.836;12.958;2023-04-20T02:38:48;97928.25;;;7.65;80.81
9746;BME280;4912;50.836;12.958;2023-04-20T02:41:19;97928.34;;;7.61;80.85
9746;BME280;4912;50.836;12.958;2023-04-20T02:43:49;97925.72;;;7.58;80.84
9746;BME280;4912;50.836;12.958;2023-04-20T02:46:20;97925.09;;;7.54;81.08
9746;BME280;4912;50.836;12.958;2023-04-20T02:48:50;97922.44;;;7.50;81.05
9746;BME280;4912;50.836;12.958;2023-04-20T02:51:24;97919.34;;;7.48;81.33
9746;BME280;4912;50.836;12.958;2023-04-20T02:54:00;97928.50;;;7.45;81.23
9746;BME280;4912;50.836;12.958;2023-04-20T02:56:31;97931.81;;;7.40;81.17
9746;BME280;4912;50.836;12.958;2023-04-20T02:59:05;97924.13;;;7.35;81.30
9746;BME280;4912;50.836;12.958;2023-04-20T03:01:58;97935.50;;;7.24;81.76
9746;BME280;4912;50.836;12.958;2023-04-20T03:04:29;97936.16;;;7.16;82.14
9746;BME280;4912;50.836;12.958;2023-04-20T03:07:18;97933.06;;;7.14;82.51
9746;BME280;4912;50.836;12.958;2023-04-20T03:09:53;97935.16;;;7.10;82.45
9746;BME280;4912;50.836;12.958;2023-04-20T03:12:38;97931.75;;;7.06;82.93
9746;BME280;4912;50.836;12.958;2023-04-20T03:15:21;97929.88;;;7.03;83.14
9746;BME280;4912;50.836;12.958;2023-04-20T03:18:01;97934.28;;;7.00;83.28
9746;BME280;4912;50.836;12.958;2023-04-20T03:20:34;97937.47;;;6.98;83.40
9746;BME280;4912;50.836;12.958;2023-04-20T03:23:05;97931.63;;;6.96;83.50
9746;BME280;4912;50.836;12.958;2023-04-20T03:25:38;97931.00;;;6.92;83.73
9746;BME280;4912;50.836;12.958;2023-04-20T03:28:16;97931.63;;;6.84;84.10
9746;BME280;4912;50.836;12.958;2023-04-20T03:30:47;97928.00;;;6.74;84.45
9746;BME280;4912;50.836;12.958;2023-04-20T03:33:18;97928.22;;;6.67;84.68
9746;BME280;4912;50.836;12.958;2023-04-20T03:35:48;97925.44;;;6.54;84.34
9746;BME280;4912;50.836;12.958;2023-04-20T03:38:19;97923.38;;;6.46;84.63
9746;BME280;4912;50.836;12.958;2023-04-20T03:40:53;97921.94;;;6.41;85.04
9746;BME280;4912;50.836;12.958;2023-04-20T03:43:24;97918.72;;;6.43;85.00
9746;BME280;4912;50.836;12.958;2023-04-20T03:45:54;97927.09;;;6.39;84.11
9746;BME280;4912;50.836;12.958;2023-04-20T03:48:25;97925.97;;;6.37;83.39
9746;BME280;4912;50.836;12.958;2023-04-20T03:50:58;97929.25;;;6.32;83.14
9746;BME280;4912;50.836;12.958;2023-04-20T03:53:30;97930.47;;;6.31;83.75
9746;BME280;4912;50.836;12.958;2023-04-20T03:56:10;97934.09;;;6.28;84.00
9746;BME280;4912;50.836;12.958;2023-04-20T03:58:42;97929.47;;;6.25;83.75
9746;BME280;4912;50.836;12.958;2023-04-20T04:01:19;97927.84;;;6.27;83.53
9746;BME280;4912;50.836;12.958;2023-04-20T04:03:49;97934.09;;;6.28;83.04
9746;BME280;4912;50.836;12.958;2023-04-20T04:06:20;97926.72;;;6.25;82.88
9746;BME280;4912;50.836;12.958;2023-04-20T04:08:50;97919.25;;;6.25;82.92
9746;BME280;4912;50.836;12.958;2023-04-20T04:11:25;97926.94;;;6.18;82.85
9746;BME280;4912;50.836;12.958;2023-04-20T04:13:57;97941.22;;;6.12;83.42
9746;BME280;4912;50.836;12.958;2023-04-20T04:16:32;97927.91;;;6.11;83.72
9746;BME280;4912;50.836;12.958;2023-04-20T04:19:02;97931.44;;;6.11;83.69
9746;BME280;4912;50.836;12.958;2023-04-20T04:21:33;97933.41;;;6.11;83.60
9746;BME280;4912;50.836;12.958;2023-04-20T04:24:05;97930.41;;;6.05;83.24
9746;BME280;4912;50.836;12.958;2023-04-20T04:26:45;97924.03;;;6.08;83.62
9746;BME280;4912;50.836;12.958;2023-04-20T04:29:16;97928.44;;;6.06;83.50
9746;BME280;4912;50.836;12.958;2023-04-20T04:31:48;97931.63;;;6.04;84.14
9746;BME280;4912;50.836;12.958;2023-04-20T04:34:18;97933.81;;;6.09;84.46
9746;BME280;4912;50.836;12.958;2023-04-20T04:36:51;97933.63;;;6.16;84.15
9746;BME280;4912;50.836;12.958;2023-04-20T04:39:31;97934.41;;;6.17;83.77
9746;BME280;4912;50.836;12.958;2023-04-20T04:42:12;97932.75;;;6.20;83.90
9746;BME280;4912;50.836;12.958;2023-04-20T04:44:46;97929.69;;;6.18;84.22
9746;BME280;4912;50.836;12.958;2023-04-20T04:47:24;97931.53;;;6.21;84.50
9746;BME280;4912;50.836;12.958;2023-04-20T04:49:55;97933.44;;;6.24;84.03
9746;BME280;4912;50.836;12.958;2023-04-20T04:52:27;97938.47;;;6.25;83.89
9746;BME280;4912;50.836;12.958;2023-04-20T04:54:58;97940.78;;;6.27;84.01
9746;BME280;4912;50.836;12.958;2023-04-20T04:57:31;97941.91;;;6.29;84.25
9746;BME280;4912;50.836;12.958;2023-04-20T05:00:02;97943.34;;;6.34;84.47
9746;BME280;4912;50.836;12.958;2023-04-20T05:02:33;97949.06;;;6.39;84.45
9746;BME280;4912;50.836;12.958;2023-04-20T05:05:05;97953.94;;;6.48;84.24
9746;BME280;4912;50.836;12.958;2023-04-20T05:07:36;97957.00;;;6.50;84.44
9746;BME280;4912;50.836;12.958;2023-04-20T05:10:07;97957.00;;;6.50;84.70
9746;BME280;4912;50.836;12.958;2023-04-20T05:12:43;97961.72;;;6.49;85.33
9746;BME280;4912;50.836;12.958;2023-04-20T05:15:14;97967.47;;;6.55;85.08
9746;BME280;4912;50.836;12.958;2023-04-20T05:17:45;97972.53;;;6.56;85.69
9746;BME280;4912;50.836;12.958;2023-04-20T05:20:15;97973.97;;;6.61;86.27
9746;BME280;4912;50.836;12.958;2023-04-20T05:22:47;97970.56;;;6.70;86.28
9746;BME280;4912;50.836;12.958;2023-04-20T05:25:17;97968.72;;;6.79;85.83
9746;BME280;4912;50.836;12.958;2023-04-20T05:27:50;97974.00;;;6.86;85.92
9746;BME280;4912;50.836;12.958;2023-04-20T05:30:21;97978.09;;;6.94;85.96
9746;BME280;4912;50.836;12.958;2023-04-20T05:32:51;97984.59;;;7.01;85.34
9746;BME280;4912;50.836;12.958;2023-04-20T05:35:21;97983.81;;;7.13;84.55
9746;BME280;4912;50.836;12.958;2023-04-20T05:37:54;97984.56;;;7.26;84.56
9746;BME280;4912;50.836;12.958;2023-04-20T05:40:26;97988.22;;;7.35;83.40
9746;BME280;4912;50.836;12.958;2023-04-20T05:42:59;97991.06;;;7.45;81.91
9746;BME280;4912;50.836;12.958;2023-04-20T05:45:29;97993.91;;;7.54;81.69
9746;BME280;4912;50.836;12.958;2023-04-20T05:48:00;97987.28;;;7.64;81.13
9746;BME280;4912;50.836;12.958;2023-04-20T05:50:30;97989.31;;;7.85;81.37
9746;BME280;4912;50.836;12.958;2023-04-20T05:53:01;97993.25;;;7.97;80.23
9746;BME280;4912;50.836;12.958;2023-04-20T05:55:35;97999.94;;;8.08;79.62
9746;BME280;4912;50.836;12.958;2023-04-20T05:58:08;97998.28;;;8.11;77.82
9746;BME280;4912;50.836;12.958;2023-04-20T06:00:38;98003.28;;;8.25;78.41
9746;BME280;4912;50.836;12.958;2023-04-20T06:03:09;98000.84;;;8.40;78.10
9746;BME280;4912;50.836;12.958;2023-04-20T06:05:39;97999.47;;;8.44;77.00
9746;BME280;4912;50.836;12.958;2023-04-20T06:08:10;98002.16;;;8.57;76.75
9746;BME280;4912;50.836;12.958;2023-04-20T06:10:40;98005.44;;;8.65;76.20
9746;BME280;4912;50.836;12.958;2023-04-20T06:13:13;98009.78;;;8.75;74.65
9746;BME280;4912;50.836;12.958;2023-04-20T06:15:43;98005.59;;;8.92;74.29
9746;BME280;4912;50.836;12.958;2023-04-20T06:18:13;98006.69;;;8.94;73.73
9746;BME280;4912;50.836;12.958;2023-04-20T06:20:43;98006.38;;;8.92;72.29
9746;BME280;4912;50.836;12.958;2023-04-20T06:23:14;98005.28;;;9.21;72.15
9746;BME280;4912;50.836;12.958;2023-04-20T06:25:44;98008.28;;;9.44;72.10
9746;BME280;4912;50.836;12.958;2023-04-20T06:28:17;98009.59;;;9.71;70.82
9746;BME280;4912;50.836;12.958;2023-04-20T06:30:47;98008.56;;;9.86;70.76
9746;BME280;4912;50.836;12.958;2023-04-20T06:33:17;98000.88;;;10.09;70.84
9746;BME280;4912;50.836;12.958;2023-04-20T06:35:48;98000.78;;;10.31;69.43
9746;BME280;4912;50.836;12.958;2023-04-20T06:38:20;97994.00;;;10.59;68.41
9746;BME280;4912;50.836;12.958;2023-04-20T06:40:51;97993.34;;;10.73;66.22
9746;BME280;4912;50.836;12.958;2023-04-20T06:43:25;97990.31;;;10.53;63.98
9746;BME280;4912;50.836;12.958;2023-04-20T06:45:56;97996.47;;;10.39;64.99
9746;BME280;4912;50.836;12.958;2023-04-20T06:48:26;98001.41;;;10.16;63.55
9746;BME280;4912;50.836;12.958;2023-04-20T06:50:58;98000.13;;;9.99;63.22
9746;BME280;4912;50.836;12.958;2023-04-20T06:53:29;97994.88;;;9.92;64.22
9746;BME280;4912;50.836;12.958;2023-04-20T06:56:00;97993.66;;;9.93;64.71
9746;BME280;4912;50.836;12.958;2023-04-20T06:58:33;97998.56;;;10.07;64.57
9746;BME280;4912;50.836;12.958;2023-04-20T07:01:03;97997.09;;;10.24;65.80
9746;BME280;4912;50.836;12.958;2023-04-20T07:03:34;98002.47;;;10.28;64.87
9746;BME280;4912;50.836;12.958;2023-04-20T07:06:05;98004.16;;;10.16;66.01
9746;BME280;4912;50.836;12.958;2023-04-20T07:08:37;98006.59;;;10.05;65.05
9746;BME280;4912;50.836;12.958;2023-04-20T07:11:08;98006.88;;;9.98;63.72
9746;BME280;4912;50.836;12.958;2023-04-20T07:13:41;98020.69;;;10.07;65.15
9746;BME280;4912;50.836;12.958;2023-04-20T07:16:11;98016.75;;;10.17;65.92
9746;BME280;4912;50.836;12.958;2023-04-20T07:18:42;98014.88;;;10.14;64.57
9746;BME280;4912;50.836;12.958;2023-04-20T07:21:12;98011.84;;;10.31;63.94
9746;BME280;4912;50.836;12.958;2023-04-20T07:23:43;98018.59;;;10.57;63.58
9746;BME280;4912;50.836;12.958;2023-04-20T07:26:14;98003.06;;;10.68;63.22
9746;BME280;4912;50.836;12.958;2023-04-20T07:28:46;98008.69;;;11.01;62.82
9746;BME280;4912;50.836;12.958;2023-04-20T07:31:17;98000.84;;;11.00;62.45
9746;BME280;4912;50.836;12.958;2023-04-20T07:33:50;98000.03;;;11.08;61.58
9746;BME280;4912;50.836;12.958;2023-04-20T07:36:20;97993.25;;;11.09;61.44
9746;BME280;4912;50.836;12.958;2023-04-20T07:38:50;97988.94;;;11.18;62.33
9746;BME280;4912;50.836;12.958;2023-04-20T07:41:21;97999.72;;;11.48;61.94
9746;BME280;4912;50.836;12.958;2023-04-20T07:43:54;97995.38;;;11.89;59.73
9746;BME280;4912;50.836;12.958;2023-04-20T07:46:24;97990.59;;;12.28;58.18
9746;BME280;4912;50.836;12.958;2023-04-20T07:48:54;97998.34;;;12.24;57.16
9746;BME280;4912;50.836;12.958;2023-04-20T07:51:24;97997.59;;;12.24;57.03
9746;BME280;4912;50.836;12.958;2023-04-20T07:53:56;97995.91;;;12.41;57.01
9746;BME280;4912;50.836;12.958;2023-04-20T07:56:26;98003.75;;;12.43;57.94
9746;BME280;4912;50.836;12.958;2023-04-20T07:58:59;98002.94;;;12.66;56.63
9746;BME280;4912;50.836;12.958;2023-04-20T08:01:29;97999.78;;;13.17;56.09
9746;BME280;4912;50.836;12.958;2023-04-20T08:04:00;97993.78;;;13.88;54.71
9746;BME280;4912;50.836;12.958;2023-04-20T08:06:31;97993.47;;;14.27;52.48
9746;BME280;4912;50.836;12.958;2023-04-20T08:09:01;97988.22;;;14.75;52.97
9746;BME280;4912;50.836;12.958;2023-04-20T08:11:32;97982.50;;;15.15;51.12
9746;BME280;4912;50.836;12.958;2023-04-20T08:14:05;97989.66;;;14.96;51.60
9746;BME280;4912;50.836;12.958;2023-04-20T08:16:35;97987.00;;;14.56;50.14
9746;BME280;4912;50.836;12.958;2023-04-20T08:19:06;97983.06;;;14.42;51.61
9746;BME280;4912;50.836;12.958;2023-04-20T08:21:38;97991.88;;;14.20;51.17
9746;BME280;4912;50.836;12.958;2023-04-20T08:24:09;97990.50;;;14.77;49.88
9746;BME280;4912;50.836;12.958;2023-04-20T08:26:39;97995.13;;;15.79;49.49
9746;BME280;4912;50.836;12.958;2023-04-20T08:29:14;97987.41;;;15.57;48.89
9746;BME280;4912;50.836;12.958;2023-04-20T08:31:44;97985.88;;;15.56;49.09
9746;BME280;4912;50.836;12.958;2023-04-20T08:34:17;97988.97;;;15.33;50.27
9746;BME280;4912;50.836;12.958;2023-04-20T08:36:47;97979.34;;;15.34;49.47
9746;BME280;4912;50.836;12.958;2023-04-20T08:39:18;97977.84;;;16.23;45.95
9746;BME280;4912;50.836;12.958;2023-04-20T08:41:50;97977.97;;;16.62;46.79
9746;BME280;4912;50.836;12.958;2023-04-20T08:44:24;97990.28;;;16.22;45.22
9746;BME280;4912;50.836;12.958;2023-04-20T08:46:54;97988.41;;;16.03;43.23
9746;BME280;4912;50.836;12.958;2023-04-20T08:49:25;97990.50;;;15.65;44.21
9746;BME280;4912;50.836;12.958;2023-04-20T08:51:57;97992.00;;;15.61;42.61
9746;BME280;4912;50.836;12.958;2023-04-20T08:54:27;97992.13;;;16.36;42.16
9746;BME280;4912;50.836;12.958;2023-04-20T08:56:59;97992.50;;;16.77;40.45
9746;BME280;4912;50.836;12.958;2023-04-20T08:59:32;98001.19;;;16.26;41.59
9746;BME280;4912;50.836;12.958;2023-04-20T09:02:08;98010.09;;;15.76;42.75
9746;BME280;4912;50.836;12.958;2023-04-20T09:04:40;98009.31;;;15.44;42.58
9746;BME280;4912;50.836;12.958;2023-04-20T09:07:16;98007.75;;;15.38;43.88
9746;BME280;4912;50.836;12.958;2023-04-20T09:09:53;98011.19;;;15.22;42.23
9746;BME280;4912;50.836;12.958;2023-04-20T09:12:24;98009.56;;;15.09;44.22
9746;BME280;4912;50.836;12.958;2023-04-20T09:14:57;98023.34;;;14.93;45.45
9746;BME280;4912;50.836;12.958;2023-04-20T09:17:31;98033.09;;;14.57;45.46
9746;BME280;4912;50.836;12.958;2023-04-20T09:20:03;98022.75;;;14.37;48.62
9746;BME280;4912;50.836;12.958;2023-04-20T09:22:35;98015.94;;;14.03;48.18
9746;BME280;4912;50.836;12.958;2023-04-20T09:25:12;98013.41;;;13.65;48.09
9746;BME280;4912;50.836;12.958;2023-04-20T09:27:53;98020.66;;;13.42;47.86
9746;BME280;4912;50.836;12.958;2023-04-20T09:30:35;98013.84;;;13.28;48.58
9746;BME280;4912;50.836;12.958;2023-04-20T09:33:06;98004.19;;;13.24;47.99
9746;BME280;4912;50.836;12.958;2023-04-20T09:35:38;98000.81;;;13.05;48.08
9746;BME280;4912;50.836;12.958;2023-04-20T09:38:10;97990.88;;;12.84;48.48
9746;BME280;4912;50.836;12.958;2023-04-20T09:40:40;98000.44;;;12.83;49.41
9746;BME280;4912;50.836;12.958;2023-04-20T09:43:12;97997.38;;;12.81;48.93
9746;BME280;4912;50.836;12.958;2023-04-20T09:45:49;97997.66;;;12.68;48.71
9746;BME280;4912;50.836;12.958;2023-04-20T09:48:20;97996.28;;;12.49;49.29
9746;BME280;4912;50.836;12.958;2023-04-20T09:50:50;97992.06;;;12.39;49.38
9746;BME280;4912;50.836;12.958;2023-04-20T09:53:21;98007.56;;;12.30;50.23
9746;BME280;4912;50.836;12.958;2023-04-20T09:55:52;98001.72;;;12.28;50.52
9746;BME280;4912;50.836;12.958;2023-04-20T09:58:22;97985.66;;;12.47;50.08
9746;BME280;4912;50.836;12.958;2023-04-20T10:00:56;97988.75;;;12.79;49.98
9746;BME280;4912;50.836;12.958;2023-04-20T10:03:26;97981.59;;;13.01;49.95
9746;BME280;4912;50.836;12.958;2023-04-20T10:05:57;97977.19;;;13.24;49.49
9746;BME280;4912;50.836;12.958;2023-04-20T10:08:38;97974.28;;;13.33;49.39
9746;BME280;4912;50.836;12.958;2023-04-20T10:11:09;97976.38;;;13.38;49.69
9746;BME280;4912;50.836;12.958;2023-04-20T10:13:39;97975.72;;;13.14;49.22
9746;BME280;4912;50.836;12.958;2023-04-20T10:16:18;97981.00;;;12.97;49.48
9746;BME280;4912;50.836;12.958;2023-04-20T10:18:56;97976.69;;;12.82;50.45
9746;BME280;4912;50.836;12.958;2023-04-20T10:21:28;97976.50;;;12.70;50.06
9746;BME280;4912;50.836;12.958;2023-04-20T10:23:58;97976.59;;;12.61;51.20
9746;BME280;4912;50.836;12.958;2023-04-20T10:26:35;97976.84;;;12.49;51.14
9746;BME280;4912;50.836;12.958;2023-04-20T10:29:06;97974.94;;;12.40;51.62
9746;BME280;4912;50.836;12.958;2023-04-20T10:31:40;97970.13;;;12.26;52.19
9746;BME280;4912;50.836;12.958;2023-04-20T10:34:11;97966.97;;;12.18;53.30
9746;BME280;4912;50.836;12.958;2023-04-20T10:36:41;97966.25;;;12.09;54.09
9746;BME280;4912;50.836;12.958;2023-04-20T10:39:12;97976.19;;;12.01;54.08
9746;BME280;4912;50.836;12.958;2023-04-20T10:41:50;97974.19;;;12.01;54.35
9746;BME280;4912;50.836;12.958;2023-04-20T10:44:21;97965.44;;;11.94;54.63
9746;BME280;4912;50.836;12.958;2023-04-20T10:46:54;97961.03;;;11.87;55.32
9746;BME280;4912;50.836;12.958;2023-04-20T10:49:24;97970.56;;;11.86;55.42
9746;BME280;4912;50.836;12.958;2023-04-20T10:51:55;97967.34;;;11.87;55.13
9746;BME280;4912;50.836;12.958;2023-04-20T10:54:25;97964.78;;;11.99;55.41
9746;BME280;4912;50.836;12.958;2023-04-20T10:56:56;97964.50;;;11.97;55.47
9746;BME280;4912;50.836;12.958;2023-04-20T10:59:28;97960.69;;;12.09;56.73
9746;BME280;4912;50.836;12.958;2023-04-20T11:02:05;97953.88;;;12.19;55.82
9746;BME280;4912;50.836;12.958;2023-04-20T11:04:36;97959.81;;;12.41;54.80
9746;BME280;4912;50.836;12.958;2023-04-20T11:07:08;97958.50;;;12.66;54.21
9746;BME280;4912;50.836;12.958;2023-04-20T11:09:39;97955.72;;;12.81;53.64
9746;BME280;4912;50.836;12.958;2023-04-20T11:12:10;97961.38;;;12.71;54.23
9746;BME280;4912;50.836;12.958;2023-04-20T11:14:49;97957.16;;;12.61;54.35
9746;BME280;4912;50.836;12.958;2023-04-20T11:17:32;97952.16;;;12.51;54.87
9746;BME280;4912;50.836;12.958;2023-04-20T11:20:03;97946.53;;;12.45;55.71
9746;BME280;4912;50.836;12.958;2023-04-20T11:22:37;97959.41;;;12.34;56.17
9746;BME280;4912;50.836;12.958;2023-04-20T11:25:08;97945.28;;;12.08;55.84
9746;BME280;4912;50.836;12.958;2023-04-20T11:27:40;97951.22;;;12.01;57.23
9746;BME280;4912;50.836;12.958;2023-04-20T11:30:10;97940.78;;;11.96;57.89
9746;BME280;4912;50.836;12.958;2023-04-20T11:32:52;97943.47;;;12.05;58.64
9746;BME280;4912;50.836;12.958;2023-04-20T11:35:23;97946.34;;;11.96;59.34
9746;BME280;4912;50.836;12.958;2023-04-20T11:37:53;97946.03;;;11.94;59.95
9746;BME280;4912;50.836;12.958;2023-04-20T11:40:27;97954.59;;;12.05;59.65
9746;BME280;4912;50.836;12.958;2023-04-20T11:42:58;97943.75;;;12.45;59.42
9746;BME280;4912;50.836;12.958;2023-04-20T11:45:30;97934.28;;;12.96;58.24
9746;BME280;4912;50.836;12.958;2023-04-20T11:48:05;97939.91;;;13.31;57.29
9746;BME280;4912;50.836;12.958;2023-04-20T11:50:36;97933.09;;;13.52;56.58
9746;BME280;4912;50.836;12.958;2023-04-20T11:53:08;97934.25;;;13.60;56.09
9746;BME280;4912;50.836;12.958;2023-04-20T11:55:40;97934.66;;;13.53;56.34
9746;BME280;4912;50.836;12.958;2023-04-20T11:58:10;97932.56;;;13.48;56.66
9746;BME280;4912;50.836;12.958;2023-04-20T12:00:41;97936.81;;;13.64;56.16
9746;BME280;4912;50.836;12.958;2023-04-20T12:03:14;97934.19;;;13.95;56.01
9746;BME280;4912;50.836;12.958;2023-04-20T12:05:44;97938.19;;;14.14;55.23
9746;BME280;4912;50.836;12.958;2023-04-20T12:08:14;97930.09;;;14.37;54.95
9746;BME280;4912;50.836;12.958;2023-04-20T12:10:45;97929.25;;;14.51;53.95
9746;BME280;4912;50.836;12.958;2023-04-20T12:13:16;97926.56;;;14.62;54.71
9746;BME280;4912;50.836;12.958;2023-04-20T12:15:46;97923.19;;;14.52;53.26
9746;BME280;4912;50.836;12.958;2023-04-20T12:18:19;97928.16;;;14.43;54.35
9746;BME280;4912;50.836;12.958;2023-04-20T12:20:49;97935.81;;;14.27;54.63
9746;BME280;4912;50.836;12.958;2023-04-20T12:23:19;97937.78;;;14.01;55.75
9746;BME280;4912;50.836;12.958;2023-04-20T12:25:50;97934.31;;;13.86;55.97
9746;BME280;4912;50.836;12.958;2023-04-20T12:28:20;97939.03;;;13.60;56.59
9746;BME280;4912;50.836;12.958;2023-04-20T12:30:50;97931.94;;;13.59;57.26
9746;BME280;4912;50.836;12.958;2023-04-20T12:33:24;97924.16;;;13.42;57.52
9746;BME280;4912;50.836;12.958;2023-04-20T12:35:54;97924.31;;;13.39;58.36
9746;BME280;4912;50.836;12.958;2023-04-20T12:38:24;97914.19;;;13.36;58.64
9746;BME280;4912;50.836;12.958;2023-04-20T12:40:55;97909.44;;;13.22;58.86
9746;BME280;4912;50.836;12.958;2023-04-20T12:43:26;97913.09;;;13.13;59.89
9746;BME280;4912;50.836;12.958;2023-04-20T12:45:56;97911.47;;;13.06;60.20
9746;BME280;4912;50.836;12.958;2023-04-20T12:48:29;97902.66;;;12.79;61.18
9746;BME280;4912;50.836;12.958;2023-04-20T12:51:01;97906.44;;;12.76;62.44
9746;BME280;4912;50.836;12.958;2023-04-20T12:53:31;97905.84;;;12.57;62.31
9746;BME280;4912;50.836;12.958;2023-04-20T12:56:01;97910.38;;;12.54;62.67
9746;BME280;4912;50.836;12.958;2023-04-20T12:58:32;97903.66;;;12.46;62.84
9746;BME280;4912;50.836;12.958;2023-04-20T13:01:02;97914.75;;;12.46;63.56
9746;BME280;4912;50.836;12.958;2023-04-20T13:03:35;97907.28;;;12.52;63.80
9746;BME280;4912;50.836;12.958;2023-04-20T13:06:06;97905.19;;;12.62;63.67
9746;BME280;4912;50.836;12.958;2023-04-20T13:08:39;97910.22;;;12.93;62.68
9746;BME280;4912;50.836;12.958;2023-04-20T13:11:10;97899.47;;;13.15;62.72
9746;BME280;4912;50.836;12.958;2023-04-20T13:13:41;97908.00;;;12.97;62.03
9746;BME280;4912;50.836;12.958;2023-04-20T13:16:12;97904.97;;;12.80;62.72
9746;BME280;4912;50.836;12.958;2023-04-20T13:18:45;97912.31;;;12.98;62.00
9746;BME280;4912;50.836;12.958;2023-04-20T13:21:16;97900.44;;;12.97;63.71
9746;BME280;4912;50.836;12.958;2023-04-20T13:23:46;97899.41;;;12.80;64.13
9746;BME280;4912;50.836;12.958;2023-04-20T13:26:17;97894.66;;;12.51;64.51
9746;BME280;4912;50.836;12.958;2023-04-20T13:28:47;97903.56;;;12.41;64.90
9746;BME280;4912;50.836;12.958;2023-04-20T13:31:17;97901.81;;;12.43;65.46
9746;BME280;4912;50.836;12.958;2023-04-20T13:33:50;97906.13;;;12.44;64.92
9746;BME280;4912;50.836;12.958;2023-04-20T13:36:22;97904.59;;;12.28;65.03
9746;BME280;4912;50.836;12.958;2023-04-20T13:38:54;97904.81;;;12.25;66.09
9746;BME280;4912;50.836;12.958;2023-04-20T13:41:24;97904.81;;;12.25;65.91
9746;BME280;4912;50.836;12.958;2023-04-20T13:43:58;97908.72;;;12.33;66.61